sensor_id;sensor_type;location;lat;lon;timestamp;pressure;altitude;pressure_sealevel;temperature
82774;BMP280;72508;45.118;20.728;2024-02-21T00:07:06;101264.34;;;12.07
82774;BMP280;72508;45.118;20.728;2024-02-21T00:17:08;101267.53;;;11.96
82774;BMP280;72508;45.118;20.728;2024-02-21T00:27:09;101246.31;;;11.91
82774;BMP280;72508;45.118;20.728;2024-02-21T00:37:11;101248.75;;;11.99
82774;BMP280;72508;45.118;20.728;2024-02-21T00:47:13;101236.00;;;11.96
82774;BMP280;72508;45.118;20.728;2024-02-21T00:57:16;101249.97;;;12.03
82774;BMP280;72508;45.118;20.728;2024-02-21T01:07:17;101242.91;;;11.97
82774;BMP280;72508;45.118;20.728;2024-02-21T01:17:19;101229.19;;;12.02
82774;BMP280;72508;45.118;20.728;2024-02-21T01:27:20;101230.94;;;11.88
82774;BMP280;72508;45.118;20.728;2024-02-21T01:37:22;101233.97;;;11.78
82774;BMP280;72508;45.118;20.728;2024-02-21T01:47:26;101219.75;;;11.59
82774;BMP280;72508;45.118;20.728;2024-02-21T01:57:27;101228.44;;;11.66
82774;BMP280;72508;45.118;20.728;2024-02-21T02:07:30;101226.63;;;11.60
82774;BMP280;72508;45.118;20.728;2024-02-21T02:17:32;101214.31;;;11.54
82774;BMP280;72508;45.118;20.728;2024-02-21T02:27:41;101217.06;;;11.46
82774;BMP280;72508;45.118;20.728;2024-02-21T02:37:50;101224.94;;;11.46
82774;BMP280;72508;45.118;20.728;2024-02-21T02:47:52;101229.56;;;11.44
82774;BMP280;72508;45.118;20.728;2024-02-21T02:57:55;101242.84;;;11.36
82774;BMP280;72508;45.118;20.728;2024-02-21T03:07:57;101236.22;;;11.05
82774;BMP280;72508;45.118;20.728;2024-02-21T03:17:59;101253.34;;;11.01
82774;BMP280;72508;45.118;20.728;2024-02-21T03:28:00;101255.56;;;11.04
82774;BMP280;72508;45.118;20.728;2024-02-21T03:38:03;101254.84;;;10.89
82774;BMP280;72508;45.118;20.728;2024-02-21T03:48:05;101256.13;;;10.71
82774;BMP280;72508;45.118;20.728;2024-02-21T03:58:07;101261.59;;;10.55
82774;BMP280;72508;45.118;20.728;2024-02-21T04:08:08;101272.66;;;10.29
82774;BMP280;72508;45.118;20.728;2024-02-21T04:18:10;101272.59;;;10.22
82774;BMP280;72508;45.118;20.728;2024-02-21T04:28:12;101274.31;;;10.15
82774;BMP280;72508;45.118;20.728;2024-02-21T04:38:13;101263.59;;;10.10
82774;BMP280;72508;45.118;20.728;2024-02-21T04:48:16;101266.09;;;10.03
82774;BMP280;72508;45.118;20.728;2024-02-21T04:58:18;101279.88;;;9.90
82774;BMP280;72508;45.118;20.728;2024-02-21T05:08:19;101279.34;;;9.80
82774;BMP280;72508;45.118;20.728;2024-02-21T05:18:21;101272.50;;;9.49
82774;BMP280;72508;45.118;20.728;2024-02-21T05:28:23;101285.47;;;9.87
82774;BMP280;72508;45.118;20.728;2024-02-21T05:38:24;101296.69;;;9.81
82774;BMP280;72508;45.118;20.728;2024-02-21T05:48:29;101294.28;;;9.86
82774;BMP280;72508;45.118;20.728;2024-02-21T05:58:31;101302.56;;;10.05
82774;BMP280;72508;45.118;20.728;2024-02-21T06:08:33;101312.34;;;10.11
82774;BMP280;72508;45.118;20.728;2024-02-21T06:18:36;101318.09;;;10.21
82774;BMP280;72508;45.118;20.728;2024-02-21T06:28:42;101323.59;;;10.26
82774;BMP280;72508;45.118;20.728;2024-02-21T06:38:44;101331.97;;;10.36
82774;BMP280;72508;45.118;20.728;2024-02-21T06:48:45;101332.47;;;10.47
82774;BMP280;72508;45.118;20.728;2024-02-21T06:58:47;101352.03;;;10.66
82774;BMP280;72508;45.118;20.728;2024-02-21T07:19:53;101348.72;;;11.00
82774;BMP280;72508;45.118;20.728;2024-02-21T07:29:58;101339.31;;;11.12
82774;BMP280;72508;45.118;20.728;2024-02-21T07:40:00;101367.91;;;11.29
82774;BMP280;72508;45.118;20.728;2024-02-21T07:50:02;101369.41;;;11.38
82774;BMP280;72508;45.118;20.728;2024-02-21T08:00:05;101364.66;;;11.55
82774;BMP280;72508;45.118;20.728;2024-02-21T08:10:22;101386.63;;;11.47
82774;BMP280;72508;45.118;20.728;2024-02-21T08:20:44;101394.34;;;11.55
82774;BMP280;72508;45.118;20.728;2024-02-21T08:30:46;101401.22;;;11.56
82774;BMP280;72508;45.118;20.728;2024-02-21T08:41:10;101383.50;;;11.65
82774;BMP280;72508;45.118;20.728;2024-02-21T08:51:12;101396.75;;;11.85
82774;BMP280;72508;45.118;20.728;2024-02-21T09:01:14;101393.13;;;11.86
82774;BMP280;72508;45.118;20.728;2024-02-21T09:11:36;101402.06;;;11.98
82774;BMP280;72508;45.118;20.728;2024-02-21T09:21:38;101408.78;;;12.07
82774;BMP280;72508;45.118;20.728;2024-02-21T09:31:40;101413.72;;;12.24
82774;BMP280;72508;45.118;20.728;2024-02-21T09:41:49;101418.63;;;12.47
82774;BMP280;72508;45.118;20.728;2024-02-21T09:51:53;101419.31;;;12.76
82774;BMP280;72508;45.118;20.728;2024-02-21T10:01:56;101411.84;;;12.92
82774;BMP280;72508;45.118;20.728;2024-02-21T10:22:41;101386.97;;;13.02
82774;BMP280;72508;45.118;20.728;2024-02-21T10:32:50;101376.22;;;13.36
82774;BMP280;72508;45.118;20.728;2024-02-21T10:42:57;101361.91;;;15.48
82774;BMP280;72508;45.118;20.728;2024-02-21T10:53:14;101342.00;;;15.64
82774;BMP280;72508;45.118;20.728;2024-02-21T11:14:06;101312.22;;;15.20
82774;BMP280;72508;45.118;20.728;2024-02-21T11:24:11;101307.47;;;16.07
82774;BMP280;72508;45.118;20.728;2024-02-21T11:44:57;101293.78;;;15.98
82774;BMP280;72508;45.118;20.728;2024-02-21T11:55:00;101268.19;;;16.81
82774;BMP280;72508;45.118;20.728;2024-02-21T12:05:06;101252.34;;;18.01
82774;BMP280;72508;45.118;20.728;2024-02-21T12:15:10;101243.03;;;16.67
82774;BMP280;72508;45.118;20.728;2024-02-21T12:25:19;101228.72;;;18.16
82774;BMP280;72508;45.118;20.728;2024-02-21T12:35:27;101209.78;;;16.59
82774;BMP280;72508;45.118;20.728;2024-02-21T12:45:28;101190.13;;;16.43
82774;BMP280;72508;45.118;20.728;2024-02-21T12:55:30;101182.91;;;15.80
82774;BMP280;72508;45.118;20.728;2024-02-21T13:05:31;101174.97;;;15.80
82774;BMP280;72508;45.118;20.728;2024-02-21T13:15:33;101169.53;;;16.98
82774;BMP280;72508;45.118;20.728;2024-02-21T13:25:35;101155.25;;;17.78
82774;BMP280;72508;45.118;20.728;2024-02-21T13:35:37;101160.31;;;17.62
82774;BMP280;72508;45.118;20.728;2024-02-21T13:45:55;101143.06;;;16.98
82774;BMP280;72508;45.118;20.728;2024-02-21T13:55:58;101150.28;;;16.10
82774;BMP280;72508;45.118;20.728;2024-02-21T14:05:59;101148.41;;;15.33
82774;BMP280;72508;45.118;20.728;2024-02-21T14:16:01;101150.13;;;15.27
82774;BMP280;72508;45.118;20.728;2024-02-21T14:26:03;101148.34;;;15.09
82774;BMP280;72508;45.118;20.728;2024-02-21T14:36:05;101150.75;;;14.19
82774;BMP280;72508;45.118;20.728;2024-02-21T14:46:06;101145.38;;;14.07
82774;BMP280;72508;45.118;20.728;2024-02-21T14:56:14;101134.88;;;14.81
82774;BMP280;72508;45.118;20.728;2024-02-21T15:06:16;101124.94;;;14.83
82774;BMP280;72508;45.118;20.728;2024-02-21T15:16:18;101135.94;;;14.80
82774;BMP280;72508;45.118;20.728;2024-02-21T15:26:19;101121.66;;;14.69
82774;BMP280;72508;45.118;20.728;2024-02-21T15:36:21;101120.41;;;14.71
82774;BMP280;72508;45.118;20.728;2024-02-21T15:46:23;101122.44;;;14.69
82774;BMP280;72508;45.118;20.728;2024-02-21T15:56:25;101135.03;;;14.67
82774;BMP280;72508;45.118;20.728;2024-02-21T16:06:28;101143.53;;;14.33
82774;BMP280;72508;45.118;20.728;2024-02-21T16:16:29;101139.41;;;14.18
82774;BMP280;72508;45.118;20.728;2024-02-21T16:26:35;101147.50;;;13.98
82774;BMP280;72508;45.118;20.728;2024-02-21T16:36:39;101151.97;;;13.98
82774;BMP280;72508;45.118;20.728;2024-02-21T16:46:41;101150.41;;;13.90
82774;BMP280;72508;45.118;20.728;2024-02-21T16:56:43;101144.28;;;13.90
82774;BMP280;72508;45.118;20.728;2024-02-21T17:06:44;101136.31;;;13.71
82774;BMP280;72508;45.118;20.728;2024-02-21T17:16:46;101141.00;;;13.37
82774;BMP280;72508;45.118;20.728;2024-02-21T17:26:48;101131.91;;;13.33
82774;BMP280;72508;45.118;20.728;2024-02-21T17:36:49;101137.03;;;13.15
82774;BMP280;72508;45.118;20.728;2024-02-21T17:46:51;101129.44;;;13.07
82774;BMP280;72508;45.118;20.728;2024-02-21T17:56:53;101127.44;;;12.89
82774;BMP280;72508;45.118;20.728;2024-02-21T18:06:55;101127.53;;;12.62
82774;BMP280;72508;45.118;20.728;2024-02-21T18:16:57;101127.34;;;12.57
82774;BMP280;72508;45.118;20.728;2024-02-21T18:26:59;101135.03;;;12.32
82774;BMP280;72508;45.118;20.728;2024-02-21T18:37:02;101123.13;;;12.03
82774;BMP280;72508;45.118;20.728;2024-02-21T18:47:05;101130.00;;;11.97
82774;BMP280;72508;45.118;20.728;2024-02-21T18:57:07;101121.91;;;11.92
82774;BMP280;72508;45.118;20.728;2024-02-21T19:07:09;101117.28;;;11.88
82774;BMP280;72508;45.118;20.728;2024-02-21T19:17:11;101117.66;;;11.78
82774;BMP280;72508;45.118;20.728;2024-02-21T19:27:12;101112.59;;;11.56
82774;BMP280;72508;45.118;20.728;2024-02-21T19:37:14;101110.94;;;11.42
82774;BMP280;72508;45.118;20.728;2024-02-21T19:47:16;101119.56;;;11.36
82774;BMP280;72508;45.118;20.728;2024-02-21T19:57:18;101113.66;;;11.20
82774;BMP280;72508;45.118;20.728;2024-02-21T20:07:19;101112.09;;;11.26
82774;BMP280;72508;45.118;20.728;2024-02-21T20:17:22;101097.09;;;11.13
82774;BMP280;72508;45.118;20.728;2024-02-21T20:27:23;101106.75;;;11.06
82774;BMP280;72508;45.118;20.728;2024-02-21T20:37:25;101097.75;;;10.80
82774;BMP280;72508;45.118;20.728;2024-02-21T20:47:27;101102.75;;;10.75
82774;BMP280;72508;45.118;20.728;2024-02-21T20:57:28;101080.31;;;10.66
82774;BMP280;72508;45.118;20.728;2024-02-21T21:07:30;101065.56;;;10.52
82774;BMP280;72508;45.118;20.728;2024-02-21T21:17:32;101051.31;;;10.61
82774;BMP280;72508;45.118;20.728;2024-02-21T21:27:33;101041.19;;;10.58
82774;BMP280;72508;45.118;20.728;2024-02-21T21:37:36;101035.78;;;10.66
82774;BMP280;72508;45.118;20.728;2024-02-21T21:47:39;101027.28;;;10.57
82774;BMP280;72508;45.118;20.728;2024-02-21T21:57:44;101025.28;;;10.66
82774;BMP280;72508;45.118;20.728;2024-02-21T22:07:46;101025.84;;;10.55
82774;BMP280;72508;45.118;20.728;2024-02-21T22:17:49;101019.34;;;10.44
82774;BMP280;72508;45.118;20.728;2024-02-21T22:27:50;101011.09;;;10.47
82774;BMP280;72508;45.118;20.728;2024-02-21T22:37:52;101014.44;;;10.28
82774;BMP280;72508;45.118;20.728;2024-02-21T22:47:53;101002.16;;;10.28
82774;BMP280;72508;45.118;20.728;2024-02-21T22:57:56;100998.28;;;10.24
82774;BMP280;72508;45.118;20.728;2024-02-21T23:07:57;100994.19;;;10.15
82774;BMP280;72508;45.118;20.728;2024-02-21T23:17:59;100988.09;;;10.08
82774;BMP280;72508;45.118;20.728;2024-02-21T23:28:00;100977.19;;;10.04
82774;BMP280;72508;45.118;20.728;2024-02-21T23:38:03;100964.53;;;10.08
82774;BMP280;72508;45.118;20.728;2024-02-21T23:48:08;100973.91;;;9.95
82774;BMP280;72508;45.118;20.728;2024-02-21T23:58:12;100967.06;;;9.94
